2019 OVCX KingsCX Day 1 Wave 6

Saturday, October 26, 2019 12:30 PM (GMT-4) - Final results

Race info
Sport: Cycling - cyclocross
Location: Mason, OH, United States
Start type: Mass start
Racers: 35
Timed on: Other
Timed with: Other
Updated: Wednesday, November 27, 2019 6:35 PM (GMT-4)
Organized by: Ohio Valley Cyclocross
Race website: ovcx.com

Contact organizer

Use this form to send an email to the organizer.

Your name
Your email address
Confirm email address
Message to organizer
Send

Place Bib Racer name Affiliation Category Finish time
1731DAVIES, MattFULL CYCLE CYCLOCROSS TEAM Masters Men 40+ 43:05--100%14.23%13.12%
2741MATTERN, CraigGenesee Valley Cycling Club Masters Men 40+ 43:43+0:38+1.47%98.55%12.97%11.85%
3736WALKER, Jason Masters Men 40+ 43:44+0:39+1.51%98.51%12.94%11.81%
4710MORGAN, Justin Masters Men 40+ 44:50+1:45+4.06%96.10%10.75%9.60%
5733SMITH, ShaddKCCX Elite Cyclocross Team Masters Men 40+ 45:18+2:13+5.15%95.11%9.82%8.65%
6706WILLIAMS, Steven Masters Men 40+ 45:29+2:24+5.57%94.72%9.45%8.28%
7732SPRANGER, Calvin Masters Men 40+ 45:52+2:47+6.46%93.93%8.69%7.51%
8716MESSER, AndrewBe Real Sports Masters Men 40+ 46:00+2:55+6.77%93.66%8.43%7.24%
9742BOWMAN, chris Masters Men 40+ 46:33+3:28+8.05%92.55%7.33%6.13%
10720KINTZEL, NickTeam Neighborlink Masters Men 40+ 47:12+4:07+9.56%91.28%6.04%4.82%
11726BRENNER, ShaneK&G Bike Center Masters Men 40+ 47:13+4:08+9.59%91.25%6.00%4.79%
12729RICHARDSON, PaulTeam Neighborlink Masters Men 40+ 47:30+4:25+10.25%90.70%5.44%4.22%
13739CONAWAY, BrettMidwest Development Cycling Inc Masters Men 40+ 47:45+4:40+10.83%90.23%4.94%3.71%
14743ELLIS, Chris360 Racing Masters Men 40+ 48:31+5:26+12.61%88.80%3.42%2.17%
15738SHERMAN, BoK&G Bike Center Masters Men 40+ 49:25+6:20+14.70%87.18%1.62%0.35%
16717HELVIE, Scott Masters Men 40+ 49:46+6:41+15.51%86.57%0.93%-0.35%
17709MCINTOSH, DuncanSeattle Race Club Masters Men 40+ 50:04+6:59+16.21%86.05%0.33%-0.96%
18723KAREW, JasonOhio Velo Masters Men 40+ 50:49+7:44+17.95%84.78%-1.16%-2.47%
19715MCKONLY, Chad Masters Men 40+ 52:12+9:07+21.16%82.54%-3.92%-5.26%
20727MAYHEW, Chris Masters Men 40+ 52:19+9:14+21.43%82.35%-4.15%-5.49%
21809STONER, Jason Masters Men 40+ 52:19+9:14+21.43%82.35%-4.15%-5.49%
22714DOSIER, CurtissKnobbe Cycling Masters Men 40+ 52:21+9:16+21.51%82.30%-4.21%-5.56%
23740MUTH, Cory Masters Men 40+ 52:26+9:21+21.70%82.17%-4.38%-5.73%
24724KNACKMUHS, EricI Am Racing Masters Men 40+ 53:32+10:27+24.26%80.48%-6.57%-7.95%
25722BABA, Ryosuke Masters Men 40+ 54:14+11:09+25.88%79.44%-7.96%-9.36%
26713KEPPLER, MichaelSpeedway Wheelmen Masters Men 40+ 54:47+11:42+27.16%78.64%-9.06%-10.47%
27707IVERSEN, Fred Masters Men 40+ 1:00:00+16:55+39.26%71.81%-19.44%-20.99%
28721CARRAWAY, DougVeloscience Cycling Team Masters Men 40+ 1:00:00+16:55+39.26%71.81%-19.44%-20.99%
29734BELL, JonDogfish/Team Noah Masters Men 40+ 1:00:00+16:55+39.26%71.81%-19.44%-20.99%
30737RILEY, MichaelTeam Hungry Masters Men 40+ 1:00:00+16:55+39.26%71.81%-19.44%-20.99%
-712JACKSON, Russ Masters Men 40+ DNF-----
-719GREENE, ToddBase Media Racing Team Masters Men 40+ DNF-----
-725BROCKET, JPMeteor-Allied Masters Men 40+ DNF-----
-730BONDS, PaulSoundpony Triad Bank Masters Men 40+ DNF-----
-735SCHMID, KurtNew England Devo p/b Cadence We Masters Men 40+ DNF-----